sensor_id;sensor_type;location;lat;lon;timestamp;temperature;humidity
64880;HTU21D;51374;45.124;36.712;2022-09-01T00:02:23;25.29;73.91
64880;HTU21D;51374;45.124;36.712;2022-09-01T00:04:52;25.25;73.90
64880;HTU21D;51374;45.124;36.712;2022-09-01T00:07:24;25.24;73.94
64880;HTU21D;51374;45.124;36.712;2022-09-01T00:09:51;25.23;73.98
64880;HTU21D;51374;45.124;36.712;2022-09-01T00:12:17;25.20;73.90
64880;HTU21D;51374;45.124;36.712;2022-09-01T00:14:43;25.19;73.92
64880;HTU21D;51374;45.124;36.712;2022-09-01T00:17:10;25.18;73.93
64880;HTU21D;51374;45.124;36.712;2022-09-01T00:19:36;25.15;73.97
64880;HTU21D;51374;45.124;36.712;2022-09-01T00:22:04;25.13;74.04
64880;HTU21D;51374;45.124;36.712;2022-09-01T00:24:31;25.08;74.06
64880;HTU21D;51374;45.124;36.712;2022-09-01T00:26:57;25.07;74.12
64880;HTU21D;51374;45.124;36.712;2022-09-01T00:29:23;25.05;74.13
64880;HTU21D;51374;45.124;36.712;2022-09-01T00:31:50;25.03;74.18
64880;HTU21D;51374;45.124;36.712;2022-09-01T00:34:16;25.02;74.22
64880;HTU21D;51374;45.124;36.712;2022-09-01T00:36:43;25.00;74.25
64880;HTU21D;51374;45.124;36.712;2022-09-01T00:39:09;25.00;74.46
64880;HTU21D;51374;45.124;36.712;2022-09-01T00:41:37;24.98;74.44
64880;HTU21D;51374;45.124;36.712;2022-09-01T00:44:11;24.98;74.47
64880;HTU21D;51374;45.124;36.712;2022-09-01T00:46:42;24.97;74.55
64880;HTU21D;51374;45.124;36.712;2022-09-01T00:49:18;24.98;74.57
64880;HTU21D;51374;45.124;36.712;2022-09-01T00:51:55;24.97;74.67
64880;HTU21D;51374;45.124;36.712;2022-09-01T00:54:26;24.97;74.75
64880;HTU21D;51374;45.124;36.712;2022-09-01T00:56:53;24.97;74.71
64880;HTU21D;51374;45.124;36.712;2022-09-01T00:59:23;24.97;74.71
64880;HTU21D;51374;45.124;36.712;2022-09-01T01:01:50;24.95;74.64
64880;HTU21D;51374;45.124;36.712;2022-09-01T01:04:16;24.94;74.68
64880;HTU21D;51374;45.124;36.712;2022-09-01T01:06:45;24.93;74.80
64880;HTU21D;51374;45.124;36.712;2022-09-01T01:09:19;24.91;74.76
64880;HTU21D;51374;45.124;36.712;2022-09-01T01:11:47;24.90;74.75
64880;HTU21D;51374;45.124;36.712;2022-09-01T01:14:15;24.91;74.76
64880;HTU21D;51374;45.124;36.712;2022-09-01T01:16:44;24.89;74.77
64880;HTU21D;51374;45.124;36.712;2022-09-01T01:22:00;24.80;74.90
64880;HTU21D;51374;45.124;36.712;2022-09-01T01:24:44;24.76;74.92
64880;HTU21D;51374;45.124;36.712;2022-09-01T01:27:10;24.76;75.12
64880;HTU21D;51374;45.124;36.712;2022-09-01T01:29:37;24.76;75.13
64880;HTU21D;51374;45.124;36.712;2022-09-01T01:32:03;24.76;75.18
64880;HTU21D;51374;45.124;36.712;2022-09-01T01:34:34;24.76;75.50
64880;HTU21D;51374;45.124;36.712;2022-09-01T01:37:00;24.77;75.44
64880;HTU21D;51374;45.124;36.712;2022-09-01T01:39:26;24.77;75.54
64880;HTU21D;51374;45.124;36.712;2022-09-01T01:41:54;24.78;75.52
64880;HTU21D;51374;45.124;36.712;2022-09-01T01:44:24;24.79;75.82
64880;HTU21D;51374;45.124;36.712;2022-09-01T01:46:55;24.78;75.77
64880;HTU21D;51374;45.124;36.712;2022-09-01T01:49:25;24.78;75.83
64880;HTU21D;51374;45.124;36.712;2022-09-01T01:51:56;24.77;76.09
64880;HTU21D;51374;45.124;36.712;2022-09-01T01:54:30;24.78;75.92
64880;HTU21D;51374;45.124;36.712;2022-09-01T01:56:58;24.79;75.93
64880;HTU21D;51374;45.124;36.712;2022-09-01T01:59:25;24.82;76.04
64880;HTU21D;51374;45.124;36.712;2022-09-01T02:01:52;24.83;76.01
64880;HTU21D;51374;45.124;36.712;2022-09-01T02:04:19;24.83;75.89
64880;HTU21D;51374;45.124;36.712;2022-09-01T02:06:47;24.83;76.24
64880;HTU21D;51374;45.124;36.712;2022-09-01T02:09:18;24.84;76.15
64880;HTU21D;51374;45.124;36.712;2022-09-01T02:11:45;24.83;76.63
64880;HTU21D;51374;45.124;36.712;2022-09-01T02:14:12;24.83;76.38
64880;HTU21D;51374;45.124;36.712;2022-09-01T02:16:40;24.83;76.41
64880;HTU21D;51374;45.124;36.712;2022-09-01T02:19:08;24.84;76.37
64880;HTU21D;51374;45.124;36.712;2022-09-01T02:21:37;24.84;76.53
64880;HTU21D;51374;45.124;36.712;2022-09-01T02:24:05;24.83;76.55
64880;HTU21D;51374;45.124;36.712;2022-09-01T02:26:36;24.86;76.47
64880;HTU21D;51374;45.124;36.712;2022-09-01T02:29:07;24.87;76.61
64880;HTU21D;51374;45.124;36.712;2022-09-01T02:31:38;24.87;77.02
64880;HTU21D;51374;45.124;36.712;2022-09-01T02:34:08;24.87;76.72
64880;HTU21D;51374;45.124;36.712;2022-09-01T02:36:44;24.87;76.63
64880;HTU21D;51374;45.124;36.712;2022-09-01T02:39:28;24.89;76.74
64880;HTU21D;51374;45.124;36.712;2022-09-01T02:41:55;24.87;76.73
64880;HTU21D;51374;45.124;36.712;2022-09-01T02:44:27;24.88;76.89
64880;HTU21D;51374;45.124;36.712;2022-09-01T02:46:55;24.88;77.00
64880;HTU21D;51374;45.124;36.712;2022-09-01T02:49:23;24.90;76.85
64880;HTU21D;51374;45.124;36.712;2022-09-01T02:51:56;24.94;76.85
64880;HTU21D;51374;45.124;36.712;2022-09-01T02:54:29;24.98;76.82
64880;HTU21D;51374;45.124;36.712;2022-09-01T02:56:55;25.00;76.86
64880;HTU21D;51374;45.124;36.712;2022-09-01T02:59:25;25.04;76.97
64880;HTU21D;51374;45.124;36.712;2022-09-01T03:01:53;25.07;77.05
64880;HTU21D;51374;45.124;36.712;2022-09-01T03:04:21;25.13;76.97
64880;HTU21D;51374;45.124;36.712;2022-09-01T03:06:47;25.16;76.96
64880;HTU21D;51374;45.124;36.712;2022-09-01T03:09:17;25.19;76.95
64880;HTU21D;51374;45.124;36.712;2022-09-01T03:11:47;25.23;77.12
64880;HTU21D;51374;45.124;36.712;2022-09-01T03:14:14;25.28;77.17
64880;HTU21D;51374;45.124;36.712;2022-09-01T03:16:40;25.33;77.12
64880;HTU21D;51374;45.124;36.712;2022-09-01T03:19:07;25.36;77.29
64880;HTU21D;51374;45.124;36.712;2022-09-01T03:21:39;25.43;77.24
64880;HTU21D;51374;45.124;36.712;2022-09-01T03:24:14;25.48;77.22
64880;HTU21D;51374;45.124;36.712;2022-09-01T03:26:42;25.52;77.59
64880;HTU21D;51374;45.124;36.712;2022-09-01T03:29:09;25.58;77.31
64880;HTU21D;51374;45.124;36.712;2022-09-01T03:31:35;25.62;77.24
64880;HTU21D;51374;45.124;36.712;2022-09-01T03:34:02;25.66;77.18
64880;HTU21D;51374;45.124;36.712;2022-09-01T03:36:32;25.69;77.21
64880;HTU21D;51374;45.124;36.712;2022-09-01T03:38:59;25.71;77.41
64880;HTU21D;51374;45.124;36.712;2022-09-01T03:41:28;25.72;77.32
64880;HTU21D;51374;45.124;36.712;2022-09-01T03:43:56;25.72;77.31
64880;HTU21D;51374;45.124;36.712;2022-09-01T03:46:27;25.73;77.45
64880;HTU21D;51374;45.124;36.712;2022-09-01T03:48:57;25.73;77.50
64880;HTU21D;51374;45.124;36.712;2022-09-01T03:51:28;25.75;77.45
64880;HTU21D;51374;45.124;36.712;2022-09-01T03:53:56;25.76;77.37
64880;HTU21D;51374;45.124;36.712;2022-09-01T03:56:26;25.77;77.43
64880;HTU21D;51374;45.124;36.712;2022-09-01T03:58:55;25.78;77.62
64880;HTU21D;51374;45.124;36.712;2022-09-01T04:01:21;25.81;77.65
64880;HTU21D;51374;45.124;36.712;2022-09-01T04:03:48;25.86;77.61
64880;HTU21D;51374;45.124;36.712;2022-09-01T04:06:19;25.90;77.76
64880;HTU21D;51374;45.124;36.712;2022-09-01T04:08:49;25.94;77.73
64880;HTU21D;51374;45.124;36.712;2022-09-01T04:11:21;25.98;77.55
64880;HTU21D;51374;45.124;36.712;2022-09-01T04:13:50;26.03;77.52
64880;HTU21D;51374;45.124;36.712;2022-09-01T04:16:24;26.07;77.51
64880;HTU21D;51374;45.124;36.712;2022-09-01T04:19:10;26.12;77.37
64880;HTU21D;51374;45.124;36.712;2022-09-01T04:21:58;26.18;77.27
64880;HTU21D;51374;45.124;36.712;2022-09-01T04:24:31;26.25;77.32
64880;HTU21D;51374;45.124;36.712;2022-09-01T04:27:00;26.33;77.20
64880;HTU21D;51374;45.124;36.712;2022-09-01T04:29:27;26.43;77.09
64880;HTU21D;51374;45.124;36.712;2022-09-01T04:31:57;26.53;76.98
64880;HTU21D;51374;45.124;36.712;2022-09-01T04:34:28;26.62;76.95
64880;HTU21D;51374;45.124;36.712;2022-09-01T04:36:55;26.71;76.89
64880;HTU21D;51374;45.124;36.712;2022-09-01T04:39:23;26.77;76.85
64880;HTU21D;51374;45.124;36.712;2022-09-01T04:41:49;26.83;76.81
64880;HTU21D;51374;45.124;36.712;2022-09-01T04:44:16;26.87;76.67
64880;HTU21D;51374;45.124;36.712;2022-09-01T04:46:45;26.93;76.65
64880;HTU21D;51374;45.124;36.712;2022-09-01T04:49:16;26.97;76.51
64880;HTU21D;51374;45.124;36.712;2022-09-01T04:51:48;27.09;76.41
64880;HTU21D;51374;45.124;36.712;2022-09-01T04:54:15;27.21;76.23
64880;HTU21D;51374;45.124;36.712;2022-09-01T04:56:46;27.30;76.07
64880;HTU21D;51374;45.124;36.712;2022-09-01T04:59:17;27.42;75.84
64880;HTU21D;51374;45.124;36.712;2022-09-01T05:01:49;27.44;75.67
64880;HTU21D;51374;45.124;36.712;2022-09-01T05:04:21;27.45;75.66
64880;HTU21D;51374;45.124;36.712;2022-09-01T05:06:50;27.45;75.58
64880;HTU21D;51374;45.124;36.712;2022-09-01T05:09:21;27.45;75.54
64880;HTU21D;51374;45.124;36.712;2022-09-01T05:12:09;27.47;75.54
64880;HTU21D;51374;45.124;36.712;2022-09-01T05:14:42;27.47;75.48
64880;HTU21D;51374;45.124;36.712;2022-09-01T05:17:10;27.49;75.34
64880;HTU21D;51374;45.124;36.712;2022-09-01T05:19:42;27.50;75.30
64880;HTU21D;51374;45.124;36.712;2022-09-01T05:22:09;27.53;75.21
64880;HTU21D;51374;45.124;36.712;2022-09-01T05:24:40;27.55;74.96
64880;HTU21D;51374;45.124;36.712;2022-09-01T05:27:07;27.56;74.94
64880;HTU21D;51374;45.124;36.712;2022-09-01T05:29:36;27.57;74.89
64880;HTU21D;51374;45.124;36.712;2022-09-01T05:32:05;27.59;74.83
64880;HTU21D;51374;45.124;36.712;2022-09-01T05:34:38;27.59;74.73
64880;HTU21D;51374;45.124;36.712;2022-09-01T05:37:07;27.60;74.70
64880;HTU21D;51374;45.124;36.712;2022-09-01T05:39:36;27.65;74.69
64880;HTU21D;51374;45.124;36.712;2022-09-01T05:42:04;27.72;74.66
64880;HTU21D;51374;45.124;36.712;2022-09-01T05:44:34;27.82;74.55
64880;HTU21D;51374;45.124;36.712;2022-09-01T05:47:02;27.93;74.45
64880;HTU21D;51374;45.124;36.712;2022-09-01T05:49:29;28.02;74.31
64880;HTU21D;51374;45.124;36.712;2022-09-01T05:52:00;28.13;74.21
64880;HTU21D;51374;45.124;36.712;2022-09-01T05:54:28;28.23;74.02
64880;HTU21D;51374;45.124;36.712;2022-09-01T05:56:56;28.29;73.91
64880;HTU21D;51374;45.124;36.712;2022-09-01T05:59:26;28.34;73.86
64880;HTU21D;51374;45.124;36.712;2022-09-01T06:02:07;28.44;73.70
64880;HTU21D;51374;45.124;36.712;2022-09-01T06:04:36;28.52;73.54
64880;HTU21D;51374;45.124;36.712;2022-09-01T06:07:11;28.58;73.40
64880;HTU21D;51374;45.124;36.712;2022-09-01T06:09:45;28.65;73.38
64880;HTU21D;51374;45.124;36.712;2022-09-01T06:12:12;28.74;73.25
64880;HTU21D;51374;45.124;36.712;2022-09-01T06:14:50;28.82;73.12
64880;HTU21D;51374;45.124;36.712;2022-09-01T06:17:19;28.84;72.86
64880;HTU21D;51374;45.124;36.712;2022-09-01T06:19:53;28.86;72.70
64880;HTU21D;51374;45.124;36.712;2022-09-01T06:22:23;28.84;72.16
64880;HTU21D;51374;45.124;36.712;2022-09-01T06:24:50;28.82;72.24
64880;HTU21D;51374;45.124;36.712;2022-09-01T06:27:22;28.82;72.30
64880;HTU21D;51374;45.124;36.712;2022-09-01T06:29:48;28.83;72.20
64880;HTU21D;51374;45.124;36.712;2022-09-01T06:32:19;28.82;72.27
64880;HTU21D;51374;45.124;36.712;2022-09-01T06:34:45;28.76;72.07
64880;HTU21D;51374;45.124;36.712;2022-09-01T06:37:15;28.72;72.16
64880;HTU21D;51374;45.124;36.712;2022-09-01T06:39:44;28.65;71.84
64880;HTU21D;51374;45.124;36.712;2022-09-01T06:42:11;28.64;71.79
64880;HTU21D;51374;45.124;36.712;2022-09-01T06:44:50;28.68;71.87
64880;HTU21D;51374;45.124;36.712;2022-09-01T06:47:17;28.71;71.18
64880;HTU21D;51374;45.124;36.712;2022-09-01T06:49:44;28.71;70.80
64880;HTU21D;51374;45.124;36.712;2022-09-01T06:52:16;28.75;70.68
64880;HTU21D;51374;45.124;36.712;2022-09-01T06:54:43;28.85;70.18
64880;HTU21D;51374;45.124;36.712;2022-09-01T06:57:09;28.97;70.28
64880;HTU21D;51374;45.124;36.712;2022-09-01T06:59:35;29.08;70.03
64880;HTU21D;51374;45.124;36.712;2022-09-01T07:02:03;29.24;69.79
64880;HTU21D;51374;45.124;36.712;2022-09-01T07:04:49;29.35;69.17
64880;HTU21D;51374;45.124;36.712;2022-09-01T07:07:16;29.39;68.83
64880;HTU21D;51374;45.124;36.712;2022-09-01T07:10:14;29.53;68.93
64880;HTU21D;51374;45.124;36.712;2022-09-01T07:12:46;29.66;68.65
64880;HTU21D;51374;45.124;36.712;2022-09-01T07:15:14;29.73;68.49
64880;HTU21D;51374;45.124;36.712;2022-09-01T07:17:47;29.87;68.26
64880;HTU21D;51374;45.124;36.712;2022-09-01T07:20:15;29.94;67.43
64880;HTU21D;51374;45.124;36.712;2022-09-01T07:22:42;29.92;67.34
64880;HTU21D;51374;45.124;36.712;2022-09-01T07:25:08;29.83;66.58
64880;HTU21D;51374;45.124;36.712;2022-09-01T07:27:59;29.83;66.65
64880;HTU21D;51374;45.124;36.712;2022-09-01T07:30:26;29.90;66.78
64880;HTU21D;51374;45.124;36.712;2022-09-01T07:32:52;29.97;66.11
64880;HTU21D;51374;45.124;36.712;2022-09-01T07:35:20;30.04;66.11
64880;HTU21D;51374;45.124;36.712;2022-09-01T07:37:48;30.10;66.01
64880;HTU21D;51374;45.124;36.712;2022-09-01T07:40:17;30.19;65.82
64880;HTU21D;51374;45.124;36.712;2022-09-01T07:42:45;30.24;65.55
64880;HTU21D;51374;45.124;36.712;2022-09-01T07:45:30;30.36;65.21
64880;HTU21D;51374;45.124;36.712;2022-09-01T07:48:01;30.45;65.07
64880;HTU21D;51374;45.124;36.712;2022-09-01T07:50:41;30.56;65.01
64880;HTU21D;51374;45.124;36.712;2022-09-01T07:53:09;30.69;65.06
64880;HTU21D;51374;45.124;36.712;2022-09-01T07:55:39;30.82;64.98
64880;HTU21D;51374;45.124;36.712;2022-09-01T07:58:06;30.93;64.88
64880;HTU21D;51374;45.124;36.712;2022-09-01T08:00:32;30.98;64.79
64880;HTU21D;51374;45.124;36.712;2022-09-01T08:03:04;30.92;64.98
64880;HTU21D;51374;45.124;36.712;2022-09-01T08:05:30;30.83;65.07
64880;HTU21D;51374;45.124;36.712;2022-09-01T08:07:57;30.75;65.29
64880;HTU21D;51374;45.124;36.712;2022-09-01T08:10:29;30.69;65.48
64880;HTU21D;51374;45.124;36.712;2022-09-01T08:12:56;30.67;65.59
64880;HTU21D;51374;45.124;36.712;2022-09-01T08:15:23;30.67;65.62
64880;HTU21D;51374;45.124;36.712;2022-09-01T08:17:49;30.65;65.68
64880;HTU21D;51374;45.124;36.712;2022-09-01T08:20:15;30.66;65.69
64880;HTU21D;51374;45.124;36.712;2022-09-01T08:22:47;30.65;65.70
64880;HTU21D;51374;45.124;36.712;2022-09-01T08:25:19;30.63;65.23
64880;HTU21D;51374;45.124;36.712;2022-09-01T08:27:45;30.65;65.34
64880;HTU21D;51374;45.124;36.712;2022-09-01T08:30:12;30.67;65.20
64880;HTU21D;51374;45.124;36.712;2022-09-01T08:32:40;30.71;65.01
64880;HTU21D;51374;45.124;36.712;2022-09-01T08:35:11;30.70;64.74
64880;HTU21D;51374;45.124;36.712;2022-09-01T08:37:38;30.76;64.85
64880;HTU21D;51374;45.124;36.712;2022-09-01T08:40:07;30.82;64.77
64880;HTU21D;51374;45.124;36.712;2022-09-01T08:45:33;30.85;64.62
64880;HTU21D;51374;45.124;36.712;2022-09-01T08:48:16;30.84;64.43
64880;HTU21D;51374;45.124;36.712;2022-09-01T08:50:47;30.85;64.49
64880;HTU21D;51374;45.124;36.712;2022-09-01T08:53:30;30.87;64.24
64880;HTU21D;51374;45.124;36.712;2022-09-01T08:55:58;30.89;64.18
64880;HTU21D;51374;45.124;36.712;2022-09-01T08:58:27;30.91;64.07
64880;HTU21D;51374;45.124;36.712;2022-09-01T09:01:37;30.92;64.05
64880;HTU21D;51374;45.124;36.712;2022-09-01T09:07:17;30.90;63.11
64880;HTU21D;51374;45.124;36.712;2022-09-01T09:09:50;30.80;62.93
64880;HTU21D;51374;45.124;36.712;2022-09-01T09:17:36;30.74;63.02
64880;HTU21D;51374;45.124;36.712;2022-09-01T09:20:04;30.74;63.08
64880;HTU21D;51374;45.124;36.712;2022-09-01T09:22:32;30.74;63.11
64880;HTU21D;51374;45.124;36.712;2022-09-01T09:25:07;30.75;63.25
64880;HTU21D;51374;45.124;36.712;2022-09-01T09:27:39;30.77;62.73
64880;HTU21D;51374;45.124;36.712;2022-09-01T09:32:51;30.84;62.77
64880;HTU21D;51374;45.124;36.712;2022-09-01T09:35:39;30.92;62.80
64880;HTU21D;51374;45.124;36.712;2022-09-01T09:41:15;31.09;62.55
64880;HTU21D;51374;45.124;36.712;2022-09-01T09:49:10;31.33;61.54
64880;HTU21D;51374;45.124;36.712;2022-09-01T09:51:40;31.46;61.45
64880;HTU21D;51374;45.124;36.712;2022-09-01T09:54:11;31.54;61.09
64880;HTU21D;51374;45.124;36.712;2022-09-01T09:56:38;31.59;60.93
64880;HTU21D;51374;45.124;36.712;2022-09-01T09:59:37;31.54;59.91
64880;HTU21D;51374;45.124;36.712;2022-09-01T10:04:50;31.72;59.28
64880;HTU21D;51374;45.124;36.712;2022-09-01T10:07:27;31.78;59.40
64880;HTU21D;51374;45.124;36.712;2022-09-01T10:09:56;31.88;59.67
64880;HTU21D;51374;45.124;36.712;2022-09-01T10:12:23;32.01;59.82
64880;HTU21D;51374;45.124;36.712;2022-09-01T10:14:57;32.10;59.86
64880;HTU21D;51374;45.124;36.712;2022-09-01T10:17:38;32.19;59.54
64880;HTU21D;51374;45.124;36.712;2022-09-01T10:20:17;32.26;59.50
64880;HTU21D;51374;45.124;36.712;2022-09-01T10:22:46;32.29;59.43
64880;HTU21D;51374;45.124;36.712;2022-09-01T10:25:23;32.29;59.30
64880;HTU21D;51374;45.124;36.712;2022-09-01T10:27:53;32.28;58.70
64880;HTU21D;51374;45.124;36.712;2022-09-01T10:30:22;32.23;58.88
64880;HTU21D;51374;45.124;36.712;2022-09-01T10:32:50;32.18;58.72
64880;HTU21D;51374;45.124;36.712;2022-09-01T10:35:27;32.16;59.02
64880;HTU21D;51374;45.124;36.712;2022-09-01T10:37:56;32.17;58.93
64880;HTU21D;51374;45.124;36.712;2022-09-01T10:42:55;32.19;58.18
64880;HTU21D;51374;45.124;36.712;2022-09-01T10:50:53;32.07;57.99
64880;HTU21D;51374;45.124;36.712;2022-09-01T10:56:16;31.85;58.49
64880;HTU21D;51374;45.124;36.712;2022-09-01T10:59:43;31.78;58.70
64880;HTU21D;51374;45.124;36.712;2022-09-01T11:07:04;31.50;60.04
64880;HTU21D;51374;45.124;36.712;2022-09-01T11:09:42;31.41;60.29
64880;HTU21D;51374;45.124;36.712;2022-09-01T11:12:43;31.34;60.35
64880;HTU21D;51374;45.124;36.712;2022-09-01T11:17:55;31.12;60.64
64880;HTU21D;51374;45.124;36.712;2022-09-01T11:20:31;31.08;60.66
64880;HTU21D;51374;45.124;36.712;2022-09-01T11:23:00;31.06;60.54
64880;HTU21D;51374;45.124;36.712;2022-09-01T11:31:00;31.06;60.35
64880;HTU21D;51374;45.124;36.712;2022-09-01T11:38:53;31.02;59.49
64880;HTU21D;51374;45.124;36.712;2022-09-01T11:44:35;30.76;59.92
64880;HTU21D;51374;45.124;36.712;2022-09-01T11:47:07;30.74;59.98
64880;HTU21D;51374;45.124;36.712;2022-09-01T11:49:44;30.79;60.16
64880;HTU21D;51374;45.124;36.712;2022-09-01T11:52:16;30.86;59.77
64880;HTU21D;51374;45.124;36.712;2022-09-01T11:54:43;30.89;59.73
64880;HTU21D;51374;45.124;36.712;2022-09-01T11:57:29;30.82;59.56
64880;HTU21D;51374;45.124;36.712;2022-09-01T11:59:59;30.77;59.28
64880;HTU21D;51374;45.124;36.712;2022-09-01T12:02:29;30.64;58.91
64880;HTU21D;51374;45.124;36.712;2022-09-01T12:05:00;30.56;58.54
64880;HTU21D;51374;45.124;36.712;2022-09-01T12:07:41;30.54;58.74
64880;HTU21D;51374;45.124;36.712;2022-09-01T12:10:19;30.55;58.45
64880;HTU21D;51374;45.124;36.712;2022-09-01T12:12:45;30.46;58.03
64880;HTU21D;51374;45.124;36.712;2022-09-01T12:15:21;30.35;58.20
64880;HTU21D;51374;45.124;36.712;2022-09-01T12:17:48;30.31;58.24
64880;HTU21D;51374;45.124;36.712;2022-09-01T12:20:24;30.30;58.41
64880;HTU21D;51374;45.124;36.712;2022-09-01T12:22:51;30.28;58.35
64880;HTU21D;51374;45.124;36.712;2022-09-01T12:25:20;30.30;58.17
64880;HTU21D;51374;45.124;36.712;2022-09-01T12:27:47;30.25;58.32
64880;HTU21D;51374;45.124;36.712;2022-09-01T12:30:14;30.21;58.35
64880;HTU21D;51374;45.124;36.712;2022-09-01T12:32:40;30.26;58.57
64880;HTU21D;51374;45.124;36.712;2022-09-01T12:35:16;30.27;58.32
64880;HTU21D;51374;45.124;36.712;2022-09-01T12:37:43;30.30;58.32
64880;HTU21D;51374;45.124;36.712;2022-09-01T12:40:31;30.35;57.58
64880;HTU21D;51374;45.124;36.712;2022-09-01T12:42:57;30.37;57.28
64880;HTU21D;51374;45.124;36.712;2022-09-01T12:45:40;30.32;56.47
64880;HTU21D;51374;45.124;36.712;2022-09-01T12:48:06;30.34;57.00
64880;HTU21D;51374;45.124;36.712;2022-09-01T12:50:48;30.39;56.92
64880;HTU21D;51374;45.124;36.712;2022-09-01T12:53:18;30.42;55.69
64880;HTU21D;51374;45.124;36.712;2022-09-01T12:55:58;30.40;56.10
64880;HTU21D;51374;45.124;36.712;2022-09-01T12:58:26;30.40;56.24
64880;HTU21D;51374;45.124;36.712;2022-09-01T13:01:05;30.34;55.69
64880;HTU21D;51374;45.124;36.712;2022-09-01T13:03:33;30.28;56.13
64880;HTU21D;51374;45.124;36.712;2022-09-01T13:06:01;30.27;56.42
64880;HTU21D;51374;45.124;36.712;2022-09-01T13:08:30;30.30;56.21
64880;HTU21D;51374;45.124;36.712;2022-09-01T13:11:00;30.22;56.07
64880;HTU21D;51374;45.124;36.712;2022-09-01T13:13:27;30.18;56.10
64880;HTU21D;51374;45.124;36.712;2022-09-01T13:15:55;30.21;56.05
64880;HTU21D;51374;45.124;36.712;2022-09-01T13:18:24;30.16;55.84
64880;HTU21D;51374;45.124;36.712;2022-09-01T13:20:51;30.06;55.76
64880;HTU21D;51374;45.124;36.712;2022-09-01T13:23:19;30.02;56.21
64880;HTU21D;51374;45.124;36.712;2022-09-01T13:25:45;30.04;56.34
64880;HTU21D;51374;45.124;36.712;2022-09-01T13:28:12;30.04;56.51
64880;HTU21D;51374;45.124;36.712;2022-09-01T13:30:39;30.01;56.46
64880;HTU21D;51374;45.124;36.712;2022-09-01T13:33:05;29.95;56.46
64880;HTU21D;51374;45.124;36.712;2022-09-01T13:35:31;29.83;56.84
64880;HTU21D;51374;45.124;36.712;2022-09-01T13:37:57;29.72;57.34
64880;HTU21D;51374;45.124;36.712;2022-09-01T13:40:23;29.65;57.89
64880;HTU21D;51374;45.124;36.712;2022-09-01T13:42:51;29.65;57.92
64880;HTU21D;51374;45.124;36.712;2022-09-01T13:45:21;29.68;57.89
64880;HTU21D;51374;45.124;36.712;2022-09-01T13:47:49;29.74;57.75
64880;HTU21D;51374;45.124;36.712;2022-09-01T13:50:17;29.76;57.32
64880;HTU21D;51374;45.124;36.712;2022-09-01T13:52:46;29.73;56.64
64880;HTU21D;51374;45.124;36.712;2022-09-01T13:55:15;29.68;56.16
64880;HTU21D;51374;45.124;36.712;2022-09-01T13:57:41;29.60;56.06
64880;HTU21D;51374;45.124;36.712;2022-09-01T14:00:11;29.63;56.16
64880;HTU21D;51374;45.124;36.712;2022-09-01T14:02:39;29.65;56.42
64880;HTU21D;51374;45.124;36.712;2022-09-01T14:05:08;29.67;56.49
64880;HTU21D;51374;45.124;36.712;2022-09-01T14:07:34;29.66;56.51
64880;HTU21D;51374;45.124;36.712;2022-09-01T14:10:00;29.62;56.58
64880;HTU21D;51374;45.124;36.712;2022-09-01T14:12:26;29.54;56.32
64880;HTU21D;51374;45.124;36.712;2022-09-01T14:14:52;29.51;56.71
64880;HTU21D;51374;45.124;36.712;2022-09-01T14:17:18;29.50;56.45
64880;HTU21D;51374;45.124;36.712;2022-09-01T14:19:51;29.44;56.52
64880;HTU21D;51374;45.124;36.712;2022-09-01T14:22:17;29.35;56.62
64880;HTU21D;51374;45.124;36.712;2022-09-01T14:24:43;29.34;56.89
64880;HTU21D;51374;45.124;36.712;2022-09-01T14:27:10;29.36;56.87
64880;HTU21D;51374;45.124;36.712;2022-09-01T14:29:36;29.34;56.99
64880;HTU21D;51374;45.124;36.712;2022-09-01T14:32:02;29.33;56.90
64880;HTU21D;51374;45.124;36.712;2022-09-01T14:34:28;29.30;56.97
64880;HTU21D;51374;45.124;36.712;2022-09-01T14:36:55;29.28;57.09
64880;HTU21D;51374;45.124;36.712;2022-09-01T14:39:23;29.21;57.28
64880;HTU21D;51374;45.124;36.712;2022-09-01T14:41:49;29.15;57.38
64880;HTU21D;51374;45.124;36.712;2022-09-01T14:44:15;29.08;57.10
64880;HTU21D;51374;45.124;36.712;2022-09-01T14:46:41;29.03;56.98
64880;HTU21D;51374;45.124;36.712;2022-09-01T14:49:08;28.97;56.57
64880;HTU21D;51374;45.124;36.712;2022-09-01T14:51:36;28.92;56.61
64880;HTU21D;51374;45.124;36.712;2022-09-01T14:54:03;28.90;56.75
64880;HTU21D;51374;45.124;36.712;2022-09-01T14:56:29;28.90;56.82
64880;HTU21D;51374;45.124;36.712;2022-09-01T14:58:55;28.93;56.71
64880;HTU21D;51374;45.124;36.712;2022-09-01T15:01:26;28.91;56.34
64880;HTU21D;51374;45.124;36.712;2022-09-01T15:03:53;28.90;56.36
64880;HTU21D;51374;45.124;36.712;2022-09-01T15:06:20;28.88;56.11
64880;HTU21D;51374;45.124;36.712;2022-09-01T15:08:47;28.87;56.22
64880;HTU21D;51374;45.124;36.712;2022-09-01T15:11:19;28.87;56.22
64880;HTU21D;51374;45.124;36.712;2022-09-01T15:13:46;28.92;56.26
64880;HTU21D;51374;45.124;36.712;2022-09-01T15:16:15;28.97;56.21
64880;HTU21D;51374;45.124;36.712;2022-09-01T15:18:42;29.00;55.85
64880;HTU21D;51374;45.124;36.712;2022-09-01T15:21:27;29.00;55.98
64880;HTU21D;51374;45.124;36.712;2022-09-01T15:23:55;29.00;56.03
64880;HTU21D;51374;45.124;36.712;2022-09-01T15:26:21;28.93;56.21
64880;HTU21D;51374;45.124;36.712;2022-09-01T15:28:48;28.90;56.38
64880;HTU21D;51374;45.124;36.712;2022-09-01T15:31:17;28.89;56.48
64880;HTU21D;51374;45.124;36.712;2022-09-01T15:33:43;28.87;56.63
64880;HTU21D;51374;45.124;36.712;2022-09-01T15:36:16;28.82;56.82
64880;HTU21D;51374;45.124;36.712;2022-09-01T15:38:42;28.77;57.05
64880;HTU21D;51374;45.124;36.712;2022-09-01T15:41:08;28.69;57.55
64880;HTU21D;51374;45.124;36.712;2022-09-01T15:43:35;28.60;57.89
64880;HTU21D;51374;45.124;36.712;2022-09-01T15:46:03;28.53;58.07
64880;HTU21D;51374;45.124;36.712;2022-09-01T15:48:29;28.41;58.57
64880;HTU21D;51374;45.124;36.712;2022-09-01T15:53:48;28.04;59.86
64880;HTU21D;51374;45.124;36.712;2022-09-01T15:56:14;27.87;60.18
64880;HTU21D;51374;45.124;36.712;2022-09-01T15:58:43;27.73;60.84
64880;HTU21D;51374;45.124;36.712;2022-09-01T16:01:09;27.59;61.29
64880;HTU21D;51374;45.124;36.712;2022-09-01T16:03:35;27.49;61.68
64880;HTU21D;51374;45.124;36.712;2022-09-01T16:06:02;27.36;62.08
64880;HTU21D;51374;45.124;36.712;2022-09-01T16:08:28;27.26;62.26
64880;HTU21D;51374;45.124;36.712;2022-09-01T16:10:54;27.17;62.41
64880;HTU21D;51374;45.124;36.712;2022-09-01T16:13:20;27.11;62.60
64880;HTU21D;51374;45.124;36.712;2022-09-01T16:18:37;26.98;62.78
64880;HTU21D;51374;45.124;36.712;2022-09-01T16:21:19;26.92;63.11
64880;HTU21D;51374;45.124;36.712;2022-09-01T16:23:49;26.85;63.22
64880;HTU21D;51374;45.124;36.712;2022-09-01T16:26:17;26.80;63.44
64880;HTU21D;51374;45.124;36.712;2022-09-01T16:28:54;26.73;63.76